sensor_id;sensor_type;location;lat;lon;timestamp;P1;durP1;ratioP1;P2;durP2;ratioP2
37069;SDS011;22984;48.862;9.320;2022-09-09T00:00:14;4.82;;;0.70;;
37069;SDS011;22984;48.862;9.320;2022-09-09T00:02:41;2.45;;;0.43;;
37069;SDS011;22984;48.862;9.320;2022-09-09T00:20:38;2.45;;;0.82;;
37069;SDS011;22984;48.862;9.320;2022-09-09T00:23:19;3.03;;;0.82;;
37069;SDS011;22984;48.862;9.320;2022-09-09T00:25:49;1.42;;;0.40;;
37069;SDS011;22984;48.862;9.320;2022-09-09T00:28:20;2.35;;;0.65;;
37069;SDS011;22984;48.862;9.320;2022-09-09T00:30:48;2.55;;;0.55;;
37069;SDS011;22984;48.862;9.320;2022-09-09T00:33:14;1.60;;;0.80;;
37069;SDS011;22984;48.862;9.320;2022-09-09T00:35:44;3.35;;;0.63;;
37069;SDS011;22984;48.862;9.320;2022-09-09T00:38:15;1.38;;;0.75;;
37069;SDS011;22984;48.862;9.320;2022-09-09T00:40:53;2.03;;;0.50;;
37069;SDS011;22984;48.862;9.320;2022-09-09T00:45:52;6.35;;;0.95;;
37069;SDS011;22984;48.862;9.320;2022-09-09T00:48:22;2.28;;;0.88;;
37069;SDS011;22984;48.862;9.320;2022-09-09T00:50:59;3.90;;;0.40;;
37069;SDS011;22984;48.862;9.320;2022-09-09T00:56:18;4.25;;;0.68;;
37069;SDS011;22984;48.862;9.320;2022-09-09T00:58:54;4.13;;;0.45;;
37069;SDS011;22984;48.862;9.320;2022-09-09T01:01:23;3.55;;;0.40;;
37069;SDS011;22984;48.862;9.320;2022-09-09T01:03:53;1.23;;;0.70;;
37069;SDS011;22984;48.862;9.320;2022-09-09T01:06:26;1.77;;;0.70;;
37069;SDS011;22984;48.862;9.320;2022-09-09T01:13:49;1.65;;;0.70;;
37069;SDS011;22984;48.862;9.320;2022-09-09T01:16:18;4.43;;;0.80;;
37069;SDS011;22984;48.862;9.320;2022-09-09T01:18:45;3.10;;;0.50;;
37069;SDS011;22984;48.862;9.320;2022-09-09T01:21:29;2.33;;;0.73;;
37069;SDS011;22984;48.862;9.320;2022-09-09T01:26:43;2.45;;;0.80;;
37069;SDS011;22984;48.862;9.320;2022-09-09T01:29:12;2.47;;;0.80;;
37069;SDS011;22984;48.862;9.320;2022-09-09T01:31:39;3.73;;;0.57;;
37069;SDS011;22984;48.862;9.320;2022-09-09T01:34:09;2.20;;;0.50;;
37069;SDS011;22984;48.862;9.320;2022-09-09T01:36:38;1.83;;;0.47;;
37069;SDS011;22984;48.862;9.320;2022-09-09T01:39:07;2.05;;;0.50;;
37069;SDS011;22984;48.862;9.320;2022-09-09T01:41:33;1.93;;;0.40;;
37069;SDS011;22984;48.862;9.320;2022-09-09T01:43:59;3.83;;;0.57;;
37069;SDS011;22984;48.862;9.320;2022-09-09T01:46:25;3.88;;;0.60;;
37069;SDS011;22984;48.862;9.320;2022-09-09T01:48:51;5.00;;;1.10;;
37069;SDS011;22984;48.862;9.320;2022-09-09T01:51:18;2.63;;;0.80;;
37069;SDS011;22984;48.862;9.320;2022-09-09T01:53:44;2.97;;;0.70;;
37069;SDS011;22984;48.862;9.320;2022-09-09T01:58:46;1.33;;;0.50;;
37069;SDS011;22984;48.862;9.320;2022-09-09T02:01:18;3.50;;;0.75;;
37069;SDS011;22984;48.862;9.320;2022-09-09T02:03:53;1.87;;;0.47;;
37069;SDS011;22984;48.862;9.320;2022-09-09T02:08:49;1.10;;;0.52;;
37069;SDS011;22984;48.862;9.320;2022-09-09T02:11:16;1.40;;;0.52;;
37069;SDS011;22984;48.862;9.320;2022-09-09T02:13:44;2.42;;;0.57;;
37069;SDS011;22984;48.862;9.320;2022-09-09T02:16:16;1.45;;;0.40;;
37069;SDS011;22984;48.862;9.320;2022-09-09T02:18:51;3.03;;;0.52;;
37069;SDS011;22984;48.862;9.320;2022-09-09T02:21:19;4.38;;;0.50;;
37069;SDS011;22984;48.862;9.320;2022-09-09T02:23:47;2.33;;;0.50;;
37069;SDS011;22984;48.862;9.320;2022-09-09T02:26:16;1.98;;;0.60;;
37069;SDS011;22984;48.862;9.320;2022-09-09T02:28:46;2.75;;;0.52;;
37069;SDS011;22984;48.862;9.320;2022-09-09T02:31:15;3.65;;;0.55;;
37069;SDS011;22984;48.862;9.320;2022-09-09T02:33:44;2.13;;;1.00;;
37069;SDS011;22984;48.862;9.320;2022-09-09T02:36:11;2.50;;;0.70;;
37069;SDS011;22984;48.862;9.320;2022-09-09T02:38:42;2.58;;;0.82;;
37069;SDS011;22984;48.862;9.320;2022-09-09T02:41:11;2.38;;;0.70;;
37069;SDS011;22984;48.862;9.320;2022-09-09T02:43:37;2.50;;;0.50;;
37069;SDS011;22984;48.862;9.320;2022-09-09T02:46:05;1.67;;;0.50;;
37069;SDS011;22984;48.862;9.320;2022-09-09T02:48:36;2.72;;;0.55;;
37069;SDS011;22984;48.862;9.320;2022-09-09T02:51:08;5.33;;;0.80;;
37069;SDS011;22984;48.862;9.320;2022-09-09T02:53:47;3.60;;;1.02;;
37069;SDS011;22984;48.862;9.320;2022-09-09T02:56:18;2.80;;;0.63;;
37069;SDS011;22984;48.862;9.320;2022-09-09T02:58:46;1.65;;;0.50;;
37069;SDS011;22984;48.862;9.320;2022-09-09T03:01:13;1.08;;;0.50;;
37069;SDS011;22984;48.862;9.320;2022-09-09T03:03:39;4.10;;;0.77;;
37069;SDS011;22984;48.862;9.320;2022-09-09T03:06:06;5.47;;;0.52;;
37069;SDS011;22984;48.862;9.320;2022-09-09T03:08:32;1.15;;;0.73;;
37069;SDS011;22984;48.862;9.320;2022-09-09T03:10:58;4.82;;;1.48;;
37069;SDS011;22984;48.862;9.320;2022-09-09T03:13:27;1.88;;;0.60;;
37069;SDS011;22984;48.862;9.320;2022-09-09T03:15:54;3.13;;;0.60;;
37069;SDS011;22984;48.862;9.320;2022-09-09T03:18:20;2.97;;;0.63;;
37069;SDS011;22984;48.862;9.320;2022-09-09T03:20:46;1.50;;;0.43;;
37069;SDS011;22984;48.862;9.320;2022-09-09T03:23:17;4.00;;;0.60;;
37069;SDS011;22984;48.862;9.320;2022-09-09T03:25:50;3.67;;;0.77;;
37069;SDS011;22984;48.862;9.320;2022-09-09T03:28:17;1.65;;;0.45;;
37069;SDS011;22984;48.862;9.320;2022-09-09T03:30:43;4.30;;;0.70;;
37069;SDS011;22984;48.862;9.320;2022-09-09T03:33:09;2.90;;;0.40;;
37069;SDS011;22984;48.862;9.320;2022-09-09T03:35:35;2.10;;;0.50;;
37069;SDS011;22984;48.862;9.320;2022-09-09T03:38:01;3.40;;;0.63;;
37069;SDS011;22984;48.862;9.320;2022-09-09T03:40:32;3.15;;;0.50;;
37069;SDS011;22984;48.862;9.320;2022-09-09T03:58:48;0.83;;;0.40;;
37069;SDS011;22984;48.862;9.320;2022-09-09T04:01:14;4.75;;;0.70;;
37069;SDS011;22984;48.862;9.320;2022-09-09T04:03:42;1.88;;;0.60;;
37069;SDS011;22984;48.862;9.320;2022-09-09T04:06:13;2.03;;;0.40;;
37069;SDS011;22984;48.862;9.320;2022-09-09T04:08:40;3.55;;;0.52;;
37069;SDS011;22984;48.862;9.320;2022-09-09T04:11:06;3.83;;;0.60;;
37069;SDS011;22984;48.862;9.320;2022-09-09T04:13:36;4.78;;;0.43;;
37069;SDS011;22984;48.862;9.320;2022-09-09T04:16:03;2.10;;;0.50;;
37069;SDS011;22984;48.862;9.320;2022-09-09T04:18:30;2.37;;;0.90;;
37069;SDS011;22984;48.862;9.320;2022-09-09T04:20:56;1.35;;;0.43;;
37069;SDS011;22984;48.862;9.320;2022-09-09T04:23:23;3.10;;;0.40;;
37069;SDS011;22984;48.862;9.320;2022-09-09T04:25:53;2.50;;;0.70;;
37069;SDS011;22984;48.862;9.320;2022-09-09T04:28:20;1.55;;;0.35;;
37069;SDS011;22984;48.862;9.320;2022-09-09T04:30:46;1.60;;;0.50;;
37069;SDS011;22984;48.862;9.320;2022-09-09T04:33:13;2.25;;;0.40;;
37069;SDS011;22984;48.862;9.320;2022-09-09T04:35:39;1.03;;;0.50;;
37069;SDS011;22984;48.862;9.320;2022-09-09T04:38:09;1.80;;;0.60;;
37069;SDS011;22984;48.862;9.320;2022-09-09T04:40:35;1.95;;;0.50;;
37069;SDS011;22984;48.862;9.320;2022-09-09T04:43:02;2.15;;;0.70;;
37069;SDS011;22984;48.862;9.320;2022-09-09T04:45:29;0.70;;;0.35;;
37069;SDS011;22984;48.862;9.320;2022-09-09T04:47:55;4.18;;;0.57;;
37069;SDS011;22984;48.862;9.320;2022-09-09T04:50:21;3.43;;;0.50;;
37069;SDS011;22984;48.862;9.320;2022-09-09T04:52:47;1.60;;;0.50;;
37069;SDS011;22984;48.862;9.320;2022-09-09T04:55:14;1.42;;;0.63;;
37069;SDS011;22984;48.862;9.320;2022-09-09T04:57:40;1.90;;;0.50;;
37069;SDS011;22984;48.862;9.320;2022-09-09T05:00:06;0.80;;;0.40;;
37069;SDS011;22984;48.862;9.320;2022-09-09T05:02:36;2.70;;;0.50;;
37069;SDS011;22984;48.862;9.320;2022-09-09T05:05:03;4.00;;;0.63;;
37069;SDS011;22984;48.862;9.320;2022-09-09T05:07:30;5.03;;;0.70;;
37069;SDS011;22984;48.862;9.320;2022-09-09T05:09:56;1.58;;;0.55;;
37069;SDS011;22984;48.862;9.320;2022-09-09T05:12:22;0.82;;;0.73;;
37069;SDS011;22984;48.862;9.320;2022-09-09T05:14:50;2.30;;;0.70;;
37069;SDS011;22984;48.862;9.320;2022-09-09T05:17:16;2.75;;;0.60;;
37069;SDS011;22984;48.862;9.320;2022-09-09T05:19:42;1.77;;;0.65;;
37069;SDS011;22984;48.862;9.320;2022-09-09T05:22:09;4.13;;;0.50;;
37069;SDS011;22984;48.862;9.320;2022-09-09T05:24:36;8.55;;;0.90;;
37069;SDS011;22984;48.862;9.320;2022-09-09T05:27:03;2.50;;;0.45;;
37069;SDS011;22984;48.862;9.320;2022-09-09T05:29:30;4.17;;;0.87;;
37069;SDS011;22984;48.862;9.320;2022-09-09T05:31:58;1.85;;;0.63;;
37069;SDS011;22984;48.862;9.320;2022-09-09T05:34:24;2.50;;;0.57;;
37069;SDS011;22984;48.862;9.320;2022-09-09T05:36:50;2.30;;;0.47;;
37069;SDS011;22984;48.862;9.320;2022-09-09T05:39:17;2.90;;;0.60;;
37069;SDS011;22984;48.862;9.320;2022-09-09T05:41:43;1.20;;;0.57;;
37069;SDS011;22984;48.862;9.320;2022-09-09T05:44:10;1.05;;;0.40;;
37069;SDS011;22984;48.862;9.320;2022-09-09T05:46:36;3.00;;;0.60;;
37069;SDS011;22984;48.862;9.320;2022-09-09T05:49:02;3.60;;;0.50;;
37069;SDS011;22984;48.862;9.320;2022-09-09T05:51:30;1.40;;;0.40;;
37069;SDS011;22984;48.862;9.320;2022-09-09T05:53:56;1.85;;;0.60;;
37069;SDS011;22984;48.862;9.320;2022-09-09T05:56:26;2.05;;;0.60;;
37069;SDS011;22984;48.862;9.320;2022-09-09T05:58:52;4.25;;;0.60;;
37069;SDS011;22984;48.862;9.320;2022-09-09T06:01:22;3.42;;;0.50;;
37069;SDS011;22984;48.862;9.320;2022-09-09T06:03:49;5.30;;;0.60;;
37069;SDS011;22984;48.862;9.320;2022-09-09T06:06:16;4.00;;;0.68;;
37069;SDS011;22984;48.862;9.320;2022-09-09T06:08:45;3.60;;;0.50;;
37069;SDS011;22984;48.862;9.320;2022-09-09T06:11:14;1.98;;;0.50;;
37069;SDS011;22984;48.862;9.320;2022-09-09T06:13:40;4.45;;;1.23;;
37069;SDS011;22984;48.862;9.320;2022-09-09T06:16:10;2.15;;;0.45;;
37069;SDS011;22984;48.862;9.320;2022-09-09T06:18:37;1.30;;;0.50;;
37069;SDS011;22984;48.862;9.320;2022-09-09T06:21:04;0.90;;;0.50;;
37069;SDS011;22984;48.862;9.320;2022-09-09T06:23:31;2.60;;;0.50;;
37069;SDS011;22984;48.862;9.320;2022-09-09T06:26:04;2.72;;;0.60;;
37069;SDS011;22984;48.862;9.320;2022-09-09T06:28:34;2.13;;;0.55;;
37069;SDS011;22984;48.862;9.320;2022-09-09T06:31:00;0.93;;;0.50;;
37069;SDS011;22984;48.862;9.320;2022-09-09T06:33:30;3.25;;;1.10;;
37069;SDS011;22984;48.862;9.320;2022-09-09T06:35:57;1.30;;;0.55;;
37069;SDS011;22984;48.862;9.320;2022-09-09T06:38:23;4.55;;;0.77;;
37069;SDS011;22984;48.862;9.320;2022-09-09T06:40:52;1.27;;;0.52;;
37069;SDS011;22984;48.862;9.320;2022-09-09T06:43:20;2.10;;;0.93;;
37069;SDS011;22984;48.862;9.320;2022-09-09T06:46:20;5.22;;;0.70;;
37069;SDS011;22984;48.862;9.320;2022-09-09T06:48:39;3.40;;;0.70;;
37069;SDS011;22984;48.862;9.320;2022-09-09T06:51:10;5.38;;;0.80;;
37069;SDS011;22984;48.862;9.320;2022-09-09T06:53:38;2.88;;;0.90;;
37069;SDS011;22984;48.862;9.320;2022-09-09T06:58:36;2.43;;;0.50;;
37069;SDS011;22984;48.862;9.320;2022-09-09T07:01:05;2.15;;;0.43;;
37069;SDS011;22984;48.862;9.320;2022-09-09T07:03:32;2.85;;;0.50;;
37069;SDS011;22984;48.862;9.320;2022-09-09T07:05:58;2.80;;;0.77;;
37069;SDS011;22984;48.862;9.320;2022-09-09T07:08:24;1.95;;;0.60;;
37069;SDS011;22984;48.862;9.320;2022-09-09T07:10:51;5.55;;;0.90;;
37069;SDS011;22984;48.862;9.320;2022-09-09T07:13:24;1.63;;;0.63;;
37069;SDS011;22984;48.862;9.320;2022-09-09T07:15:52;2.25;;;0.82;;
37069;SDS011;22984;48.862;9.320;2022-09-09T07:18:18;5.70;;;1.13;;
37069;SDS011;22984;48.862;9.320;2022-09-09T07:20:53;4.00;;;0.90;;
37069;SDS011;22984;48.862;9.320;2022-09-09T07:23:21;2.78;;;0.52;;
37069;SDS011;22984;48.862;9.320;2022-09-09T07:25:47;3.73;;;0.70;;
37069;SDS011;22984;48.862;9.320;2022-09-09T07:28:13;2.17;;;0.50;;
37069;SDS011;22984;48.862;9.320;2022-09-09T07:30:39;4.00;;;0.70;;
37069;SDS011;22984;48.862;9.320;2022-09-09T07:33:06;3.67;;;0.50;;
37069;SDS011;22984;48.862;9.320;2022-09-09T07:35:32;3.67;;;0.90;;
37069;SDS011;22984;48.862;9.320;2022-09-09T07:38:00;1.30;;;0.50;;
37069;SDS011;22984;48.862;9.320;2022-09-09T07:40:26;2.72;;;0.50;;
37069;SDS011;22984;48.862;9.320;2022-09-09T07:42:53;3.22;;;1.20;;
37069;SDS011;22984;48.862;9.320;2022-09-09T07:45:19;2.88;;;0.57;;
37069;SDS011;22984;48.862;9.320;2022-09-09T07:47:45;3.72;;;0.65;;
37069;SDS011;22984;48.862;9.320;2022-09-09T07:50:11;1.70;;;0.70;;
37069;SDS011;22984;48.862;9.320;2022-09-09T07:52:37;3.40;;;0.90;;
37069;SDS011;22984;48.862;9.320;2022-09-09T07:55:03;0.93;;;0.50;;
37069;SDS011;22984;48.862;9.320;2022-09-09T07:57:29;5.50;;;0.80;;
37069;SDS011;22984;48.862;9.320;2022-09-09T07:59:56;1.80;;;0.50;;
37069;SDS011;22984;48.862;9.320;2022-09-09T08:02:22;1.70;;;0.50;;
37069;SDS011;22984;48.862;9.320;2022-09-09T08:04:48;3.13;;;0.50;;
37069;SDS011;22984;48.862;9.320;2022-09-09T08:07:15;0.85;;;0.52;;
37069;SDS011;22984;48.862;9.320;2022-09-09T08:09:41;2.15;;;0.50;;
37069;SDS011;22984;48.862;9.320;2022-09-09T08:12:08;3.33;;;0.70;;
37069;SDS011;22984;48.862;9.320;2022-09-09T08:14:35;2.50;;;0.65;;
37069;SDS011;22984;48.862;9.320;2022-09-09T08:17:02;3.22;;;0.60;;
37069;SDS011;22984;48.862;9.320;2022-09-09T08:19:28;1.33;;;0.50;;
37069;SDS011;22984;48.862;9.320;2022-09-09T08:21:55;4.53;;;0.73;;
37069;SDS011;22984;48.862;9.320;2022-09-09T08:24:21;1.50;;;0.60;;
37069;SDS011;22984;48.862;9.320;2022-09-09T08:26:48;2.47;;;0.52;;
37069;SDS011;22984;48.862;9.320;2022-09-09T08:29:14;2.47;;;0.70;;
37069;SDS011;22984;48.862;9.320;2022-09-09T08:31:41;3.42;;;0.80;;
37069;SDS011;22984;48.862;9.320;2022-09-09T08:34:08;1.67;;;0.50;;
37069;SDS011;22984;48.862;9.320;2022-09-09T08:36:35;3.85;;;0.50;;
37069;SDS011;22984;48.862;9.320;2022-09-09T08:39:03;1.95;;;0.80;;
37069;SDS011;22984;48.862;9.320;2022-09-09T08:44:13;4.05;;;0.80;;
37069;SDS011;22984;48.862;9.320;2022-09-09T08:52:15;2.50;;;0.43;;
37069;SDS011;22984;48.862;9.320;2022-09-09T08:54:42;2.25;;;0.70;;
37069;SDS011;22984;48.862;9.320;2022-09-09T08:57:11;1.90;;;0.65;;
37069;SDS011;22984;48.862;9.320;2022-09-09T08:59:40;1.50;;;0.47;;
37069;SDS011;22984;48.862;9.320;2022-09-09T09:02:15;1.40;;;0.40;;
37069;SDS011;22984;48.862;9.320;2022-09-09T09:12:46;1.40;;;0.40;;
37069;SDS011;22984;48.862;9.320;2022-09-09T09:15:16;3.08;;;0.82;;
37069;SDS011;22984;48.862;9.320;2022-09-09T09:17:43;2.67;;;0.70;;
37069;SDS011;22984;48.862;9.320;2022-09-09T09:20:14;1.90;;;0.47;;
37069;SDS011;22984;48.862;9.320;2022-09-09T09:22:52;2.40;;;0.38;;
37069;SDS011;22984;48.862;9.320;2022-09-09T09:25:22;3.53;;;0.88;;
37069;SDS011;22984;48.862;9.320;2022-09-09T09:30:26;3.58;;;0.45;;
37069;SDS011;22984;48.862;9.320;2022-09-09T09:32:57;3.42;;;0.43;;
37069;SDS011;22984;48.862;9.320;2022-09-09T09:35:24;2.20;;;0.40;;
37069;SDS011;22984;48.862;9.320;2022-09-09T09:37:50;2.00;;;0.50;;
37069;SDS011;22984;48.862;9.320;2022-09-09T09:40:20;1.75;;;0.30;;
37069;SDS011;22984;48.862;9.320;2022-09-09T09:42:51;2.35;;;0.40;;
37069;SDS011;22984;48.862;9.320;2022-09-09T09:45:28;2.63;;;0.45;;
37069;SDS011;22984;48.862;9.320;2022-09-09T09:48:14;4.82;;;0.80;;
37069;SDS011;22984;48.862;9.320;2022-09-09T09:50:50;2.80;;;0.50;;
37069;SDS011;22984;48.862;9.320;2022-09-09T09:56:14;2.00;;;0.40;;
37069;SDS011;22984;48.862;9.320;2022-09-09T10:03:58;0.50;;;0.10;;
37069;SDS011;22984;48.862;9.320;2022-09-09T10:08:58;0.70;;;0.10;;
37069;SDS011;22984;48.862;9.320;2022-09-09T10:19:03;0.82;;;0.40;;
37069;SDS011;22984;48.862;9.320;2022-09-09T10:36:44;0.90;;;0.30;;
37069;SDS011;22984;48.862;9.320;2022-09-09T10:39:45;2.35;;;0.40;;
37069;SDS011;22984;48.862;9.320;2022-09-09T10:42:14;1.50;;;0.60;;
37069;SDS011;22984;48.862;9.320;2022-09-09T10:55:18;1.35;;;0.45;;
37069;SDS011;22984;48.862;9.320;2022-09-09T10:57:45;0.90;;;0.50;;
37069;SDS011;22984;48.862;9.320;2022-09-09T11:00:18;1.20;;;0.35;;
37069;SDS011;22984;48.862;9.320;2022-09-09T11:02:45;1.40;;;0.55;;
37069;SDS011;22984;48.862;9.320;2022-09-09T11:07:40;1.00;;;0.40;;
37069;SDS011;22984;48.862;9.320;2022-09-09T11:12:43;1.20;;;0.47;;
37069;SDS011;22984;48.862;9.320;2022-09-09T11:15:54;0.90;;;0.30;;
37069;SDS011;22984;48.862;9.320;2022-09-09T11:18:01;3.88;;;0.68;;
37069;SDS011;22984;48.862;9.320;2022-09-09T11:20:30;1.20;;;0.40;;
37069;SDS011;22984;48.862;9.320;2022-09-09T11:23:04;1.45;;;0.35;;
37069;SDS011;22984;48.862;9.320;2022-09-09T11:30:32;0.85;;;0.38;;
37069;SDS011;22984;48.862;9.320;2022-09-09T11:33:05;1.58;;;0.30;;
37069;SDS011;22984;48.862;9.320;2022-09-09T11:38:27;12.30;;;1.75;;
37069;SDS011;22984;48.862;9.320;2022-09-09T11:40:58;13.43;;;2.40;;
37069;SDS011;22984;48.862;9.320;2022-09-09T11:43:29;7.10;;;1.40;;
37069;SDS011;22984;48.862;9.320;2022-09-09T11:45:58;3.17;;;1.15;;
37069;SDS011;22984;48.862;9.320;2022-09-09T11:48:35;7.90;;;1.10;;
37069;SDS011;22984;48.862;9.320;2022-09-09T11:51:09;4.43;;;0.70;;
37069;SDS011;22984;48.862;9.320;2022-09-09T11:53:46;2.55;;;0.80;;
37069;SDS011;22984;48.862;9.320;2022-09-09T11:56:22;3.38;;;0.90;;
37069;SDS011;22984;48.862;9.320;2022-09-09T11:58:56;5.25;;;0.70;;
37069;SDS011;22984;48.862;9.320;2022-09-09T12:04:05;4.22;;;0.32;;
37069;SDS011;22984;48.862;9.320;2022-09-09T12:06:33;1.90;;;0.35;;
37069;SDS011;22984;48.862;9.320;2022-09-09T12:12:04;3.08;;;0.40;;
37069;SDS011;22984;48.862;9.320;2022-09-09T12:14:38;2.50;;;0.30;;
37069;SDS011;22984;48.862;9.320;2022-09-09T12:19:40;1.50;;;0.33;;
37069;SDS011;22984;48.862;9.320;2022-09-09T12:24:41;0.80;;;0.28;;
37069;SDS011;22984;48.862;9.320;2022-09-09T12:30:04;0.50;;;0.20;;
37069;SDS011;22984;48.862;9.320;2022-09-09T12:32:34;0.63;;;0.13;;
37069;SDS011;22984;48.862;9.320;2022-09-09T12:35:04;3.30;;;0.28;;
37069;SDS011;22984;48.862;9.320;2022-09-09T12:37:42;0.60;;;0.20;;
37069;SDS011;22984;48.862;9.320;2022-09-09T12:40:19;0.50;;;0.20;;
37069;SDS011;22984;48.862;9.320;2022-09-09T12:42:45;0.90;;;0.20;;
37069;SDS011;22984;48.862;9.320;2022-09-09T12:45:15;0.60;;;0.30;;
37069;SDS011;22984;48.862;9.320;2022-09-09T12:50:28;0.60;;;0.20;;
37069;SDS011;22984;48.862;9.320;2022-09-09T12:53:02;1.27;;;0.20;;
37069;SDS011;22984;48.862;9.320;2022-09-09T12:55:31;0.20;;;0.10;;
37069;SDS011;22984;48.862;9.320;2022-09-09T12:57:58;2.43;;;0.50;;
37069;SDS011;22984;48.862;9.320;2022-09-09T13:00:25;1.25;;;0.30;;
37069;SDS011;22984;48.862;9.320;2022-09-09T13:02:55;0.93;;;0.43;;
37069;SDS011;22984;48.862;9.320;2022-09-09T13:05:23;0.43;;;0.20;;
37069;SDS011;22984;48.862;9.320;2022-09-09T13:07:49;0.98;;;0.20;;
37069;SDS011;22984;48.862;9.320;2022-09-09T13:10:20;1.58;;;0.38;;
37069;SDS011;22984;48.862;9.320;2022-09-09T13:12:47;0.50;;;0.20;;
37069;SDS011;22984;48.862;9.320;2022-09-09T13:15:19;1.48;;;0.15;;
37069;SDS011;22984;48.862;9.320;2022-09-09T13:17:49;0.50;;;0.20;;
37069;SDS011;22984;48.862;9.320;2022-09-09T13:20:16;0.60;;;0.13;;
37069;SDS011;22984;48.862;9.320;2022-09-09T13:22:43;1.33;;;0.55;;
37069;SDS011;22984;48.862;9.320;2022-09-09T13:27:37;1.25;;;0.20;;
37069;SDS011;22984;48.862;9.320;2022-09-09T13:30:23;1.10;;;0.20;;
37069;SDS011;22984;48.862;9.320;2022-09-09T13:35:46;1.60;;;0.25;;
37069;SDS011;22984;48.862;9.320;2022-09-09T13:38:14;1.80;;;0.30;;
37069;SDS011;22984;48.862;9.320;2022-09-09T13:40:40;0.88;;;0.17;;
37069;SDS011;22984;48.862;9.320;2022-09-09T13:43:10;3.55;;;0.40;;
37069;SDS011;22984;48.862;9.320;2022-09-09T13:45:40;0.85;;;0.10;;
37069;SDS011;22984;48.862;9.320;2022-09-09T13:48:10;0.47;;;0.10;;
37069;SDS011;22984;48.862;9.320;2022-09-09T13:50:36;2.00;;;0.40;;
37069;SDS011;22984;48.862;9.320;2022-09-09T13:53:02;1.40;;;0.30;;
37069;SDS011;22984;48.862;9.320;2022-09-09T13:55:29;0.95;;;0.30;;
37069;SDS011;22984;48.862;9.320;2022-09-09T13:57:56;1.33;;;0.30;;
37069;SDS011;22984;48.862;9.320;2022-09-09T14:00:23;1.80;;;0.30;;
37069;SDS011;22984;48.862;9.320;2022-09-09T14:02:49;2.53;;;0.53;;
37069;SDS011;22984;48.862;9.320;2022-09-09T14:05:15;1.42;;;0.40;;
37069;SDS011;22984;48.862;9.320;2022-09-09T14:07:42;0.53;;;0.20;;
37069;SDS011;22984;48.862;9.320;2022-09-09T14:10:09;0.45;;;0.17;;
37069;SDS011;22984;48.862;9.320;2022-09-09T14:12:35;1.33;;;0.33;;
37069;SDS011;22984;48.862;9.320;2022-09-09T14:15:01;3.33;;;0.40;;
37069;SDS011;22984;48.862;9.320;2022-09-09T14:17:28;1.00;;;0.20;;
37069;SDS011;22984;48.862;9.320;2022-09-09T14:19:55;2.20;;;0.20;;
37069;SDS011;22984;48.862;9.320;2022-09-09T14:22:21;1.97;;;0.20;;
37069;SDS011;22984;48.862;9.320;2022-09-09T14:24:48;1.00;;;0.30;;
37069;SDS011;22984;48.862;9.320;2022-09-09T14:27:14;0.80;;;0.20;;
37069;SDS011;22984;48.862;9.320;2022-09-09T14:29:40;1.15;;;0.40;;
37069;SDS011;22984;48.862;9.320;2022-09-09T14:32:08;1.70;;;0.20;;
37069;SDS011;22984;48.862;9.320;2022-09-09T14:34:34;0.97;;;0.27;;
37069;SDS011;22984;48.862;9.320;2022-09-09T14:37:00;1.55;;;0.20;;
37069;SDS011;22984;48.862;9.320;2022-09-09T14:39:26;0.80;;;0.30;;
37069;SDS011;22984;48.862;9.320;2022-09-09T14:41:53;1.10;;;0.20;;
37069;SDS011;22984;48.862;9.320;2022-09-09T14:44:19;2.60;;;0.50;;
37069;SDS011;22984;48.862;9.320;2022-09-09T14:46:45;0.68;;;0.20;;
37069;SDS011;22984;48.862;9.320;2022-09-09T14:49:11;4.90;;;0.30;;
37069;SDS011;22984;48.862;9.320;2022-09-09T14:51:37;0.73;;;0.22;;
37069;SDS011;22984;48.862;9.320;2022-09-09T14:54:04;0.30;;;0.20;;
37069;SDS011;22984;48.862;9.320;2022-09-09T14:56:31;0.80;;;0.20;;
37069;SDS011;22984;48.862;9.320;2022-09-09T14:58:59;1.48;;;0.20;;
37069;SDS011;22984;48.862;9.320;2022-09-09T15:01:26;0.68;;;0.25;;
37069;SDS011;22984;48.862;9.320;2022-09-09T15:03:53;2.42;;;0.30;;
37069;SDS011;22984;48.862;9.320;2022-09-09T15:06:20;1.00;;;0.30;;
37069;SDS011;22984;48.862;9.320;2022-09-09T15:08:46;1.67;;;0.30;;
37069;SDS011;22984;48.862;9.320;2022-09-09T15:11:13;3.83;;;0.40;;
37069;SDS011;22984;48.862;9.320;2022-09-09T15:13:40;0.73;;;0.28;;
37069;SDS011;22984;48.862;9.320;2022-09-09T15:16:08;3.78;;;0.40;;
37069;SDS011;22984;48.862;9.320;2022-09-09T15:18:34;1.00;;;0.40;;
37069;SDS011;22984;48.862;9.320;2022-09-09T15:21:01;1.15;;;0.20;;
37069;SDS011;22984;48.862;9.320;2022-09-09T15:23:31;1.60;;;0.10;;
37069;SDS011;22984;48.862;9.320;2022-09-09T15:25:57;0.88;;;0.20;;
37069;SDS011;22984;48.862;9.320;2022-09-09T15:28:23;0.77;;;0.10;;
37069;SDS011;22984;48.862;9.320;2022-09-09T15:30:49;3.30;;;0.30;;
37069;SDS011;22984;48.862;9.320;2022-09-09T15:33:17;0.60;;;0.10;;
37069;SDS011;22984;48.862;9.320;2022-09-09T15:35:43;1.05;;;0.20;;
37069;SDS011;22984;48.862;9.320;2022-09-09T15:38:09;0.70;;;0.10;;
37069;SDS011;22984;48.862;9.320;2022-09-09T15:40:37;2.88;;;0.15;;
37069;SDS011;22984;48.862;9.320;2022-09-09T15:43:04;1.00;;;0.13;;
37069;SDS011;22984;48.862;9.320;2022-09-09T15:45:31;0.90;;;0.15;;
37069;SDS011;22984;48.862;9.320;2022-09-09T15:47:58;1.00;;;0.30;;
37069;SDS011;22984;48.862;9.320;2022-09-09T15:50:24;1.58;;;0.25;;
37069;SDS011;22984;48.862;9.320;2022-09-09T15:52:50;2.00;;;0.30;;
37069;SDS011;22984;48.862;9.320;2022-09-09T15:55:17;0.45;;;0.10;;
37069;SDS011;22984;48.862;9.320;2022-09-09T15:57:45;1.02;;;0.10;;
37069;SDS011;22984;48.862;9.320;2022-09-09T16:00:12;1.20;;;0.20;;
37069;SDS011;22984;48.862;9.320;2022-09-09T16:02:39;3.00;;;0.30;;
37069;SDS011;22984;48.862;9.320;2022-09-09T16:05:05;0.47;;;0.17;;
37069;SDS011;22984;48.862;9.320;2022-09-09T16:07:31;1.17;;;0.40;;
37069;SDS011;22984;48.862;9.320;2022-09-09T16:09:59;0.50;;;0.10;;
37069;SDS011;22984;48.862;9.320;2022-09-09T16:12:25;0.85;;;0.28;;
37069;SDS011;22984;48.862;9.320;2022-09-09T16:14:51;1.35;;;0.30;;
37069;SDS011;22984;48.862;9.320;2022-09-09T16:17:17;2.58;;;0.40;;
37069;SDS011;22984;48.862;9.320;2022-09-09T16:19:45;1.05;;;0.32;;
37069;SDS011;22984;48.862;9.320;2022-09-09T16:22:11;0.80;;;0.28;;
37069;SDS011;22984;48.862;9.320;2022-09-09T16:24:40;0.80;;;0.17;;
37069;SDS011;22984;48.862;9.320;2022-09-09T16:27:06;1.35;;;0.20;;
37069;SDS011;22984;48.862;9.320;2022-09-09T16:29:32;0.70;;;0.20;;
37069;SDS011;22984;48.862;9.320;2022-09-09T16:31:58;1.70;;;0.20;;
37069;SDS011;22984;48.862;9.320;2022-09-09T16:34:24;0.70;;;0.10;;
37069;SDS011;22984;48.862;9.320;2022-09-09T16:36:51;1.27;;;0.30;;
37069;SDS011;22984;48.862;9.320;2022-09-09T16:39:18;1.30;;;0.38;;
37069;SDS011;22984;48.862;9.320;2022-09-09T16:41:45;2.42;;;0.20;;
37069;SDS011;22984;48.862;9.320;2022-09-09T16:44:12;3.70;;;0.60;;
37069;SDS011;22984;48.862;9.320;2022-09-09T16:46:40;0.20;;;0.10;;
37069;SDS011;22984;48.862;9.320;2022-09-09T16:49:07;1.95;;;0.20;;
37069;SDS011;22984;48.862;9.320;2022-09-09T16:51:35;0.50;;;0.10;;
37069;SDS011;22984;48.862;9.320;2022-09-09T16:54:02;4.35;;;0.20;;
37069;SDS011;22984;48.862;9.320;2022-09-09T16:56:29;2.05;;;0.10;;
37069;SDS011;22984;48.862;9.320;2022-09-09T16:58:58;4.07;;;0.20;;
37069;SDS011;22984;48.862;9.320;2022-09-09T17:01:25;1.45;;;0.45;;
37069;SDS011;22984;48.862;9.320;2022-09-09T17:03:55;1.50;;;0.10;;
37069;SDS011;22984;48.862;9.320;2022-09-09T17:06:22;1.40;;;0.30;;
37069;SDS011;22984;48.862;9.320;2022-09-09T17:08:53;0.50;;;0.10;;
37069;SDS011;22984;48.862;9.320;2022-09-09T17:11:19;0.60;;;0.20;;
37069;SDS011;22984;48.862;9.320;2022-09-09T17:13:46;0.40;;;0.15;;
37069;SDS011;22984;48.862;9.320;2022-09-09T17:16:12;0.50;;;0.10;;
37069;SDS011;22984;48.862;9.320;2022-09-09T17:18:39;1.00;;;0.60;;
37069;SDS011;22984;48.862;9.320;2022-09-09T17:21:05;1.40;;;0.10;;
37069;SDS011;22984;48.862;9.320;2022-09-09T17:23:33;1.45;;;0.20;;